Weather History for Kankakee, IL

Change the Weather History Date:

Wednesday, March 5, 2014

  Actual Average Record
Temperature  
Mean Temperature 19 °F -  
Max Temperature 23 °F 47 °F 73 °F (1983)
Min Temperature 15 °F 26 °F -6 °F (1978)
Degree Days  
Heating Degree Days 46    
Moisture  
Dew Point 15 °F    
Average Humidity 80    
Maximum Humidity 89    
Minimum Humidity 67    
Precipitation  
Precipitation 0.00 in - - ()
Sea Level Pressure  
Sea Level Pressure 30.35 in    
Wind  
Wind Speed 8 mph (NE)    
Max Wind Speed 17 mph    
Max Gust Speed 22 mph    
Visibility 7 miles    
Events Snow    
Averages and records for this station are not official NWS values.
T = Trace of Precipitation, MM = Missing Value Source: NWS Daily Summary

Daily Weather History Graph

Daily Weather History Graph

Search for Another Location

Airport:

Trip Planner

Search our weather history database for the weather conditions in past years. The results will help you decide how hot, cold, wet, or windy it might be!

Date:

Astronomy

Mar. 05, 2014 Rise Set
Actual Time 6:19 AM CST 5:47 PM CST
Civil Twilight 5:51 AM CST 6:14 PM CST
Nautical Twilight 5:20 AM CST 6:46 PM CST
Astronomical Twilight 4:48 AM CST 7:18 PM CST
Moon 8:42 AM CST (3/5) 10:58 PM CST (3/5)
Length of Visible Light 12h 22m
Length of Day
11h 27m
Waxing Crescent, 23% of the Moon is Illuminated
Mar 5
Waxing Crescent
Mar 8
First Quarter
Mar 16
Full
Mar 23
Last Quarter
Mar 30
New

Hourly Weather History & Observations

Time (CST) Temp. Windchill Dew Point Humidity Pressure Visibility Wind Dir Wind Speed Gust Speed Precip Events Conditions
12:15 AM 15.1 °F 7.7 °F 9.7 °F 79% 30.23 in 10.0 mi ENE 4.6 mph - N/A   Clear
12:35 AM 15.4 °F - 9.7 °F 78% 30.25 in 10.0 mi Calm Calm - N/A   Clear
12:55 AM 15.3 °F 9.6 °F 9.7 °F 79% 30.24 in 10.0 mi ENE 3.5 mph - N/A   Scattered Clouds
1:15 AM 16.9 °F - 11.8 °F 81% 30.25 in 10.0 mi Calm Calm - N/A   Overcast
1:35 AM 17.2 °F 11.9 °F 11.8 °F 79% 30.26 in 10.0 mi NE 3.5 mph - N/A   Overcast
1:55 AM 17.8 °F 12.5 °F 11.7 °F 77% 30.25 in 10.0 mi ENE 3.5 mph - N/A   Mostly Cloudy
2:15 AM 18.0 °F 12.7 °F 12.2 °F 78% 30.25 in 10.0 mi NE 3.5 mph - N/A   Mostly Cloudy
2:35 AM 17.2 °F 11.9 °F 11.3 °F 78% 30.26 in 10.0 mi ENE 3.5 mph - N/A   Scattered Clouds
2:55 AM 18.0 °F 12.7 °F 12.2 °F 78% 30.26 in 10.0 mi NE 3.5 mph - N/A   Mostly Cloudy
3:15 AM 18.5 °F 11.7 °F 12.6 °F 78% 30.28 in 10.0 mi NNE 4.6 mph - N/A   Overcast
3:35 AM 18.5 °F 10.4 °F 12.9 °F 79% 30.27 in 10.0 mi NE 5.8 mph - N/A   Overcast
3:55 AM 18.9 °F 9.8 °F 12.9 °F 78% 30.28 in 10.0 mi NE 6.9 mph - N/A   Overcast
4:15 AM 19.0 °F 9.0 °F 12.6 °F 76% 30.29 in 10.0 mi NE 8.1 mph - N/A   Overcast
4:30 AM 19.2 °F 8.4 °F 12.0 °F 74% 30.29 in 10.0 mi ENE 9.2 mph - N/A   Overcast
4:55 AM 19.4 °F 8.6 °F 10.9 °F 70% 30.29 in 10.0 mi ENE 9.2 mph - N/A   Overcast
5:15 AM 19.8 °F 9.1 °F 10.2 °F 67% 30.30 in 10.0 mi NE 9.2 mph - N/A   Overcast
5:35 AM 19.4 °F 9.5 °F 10.6 °F 69% 30.31 in 10.0 mi NE 8.1 mph - N/A   Overcast
5:55 AM 19.4 °F 11.5 °F 10.9 °F 70% 30.32 in 10.0 mi ENE 5.8 mph - N/A   Overcast
5:59 AM 19.4 °F 10.4 °F 10.4 °F 68% 30.31 in 10.0 mi ENE 6.9 mph - N/A   Overcast
6:15 AM 19.9 °F 9.3 °F 11.3 °F 69% 30.31 in 10.0 mi NE 9.2 mph - N/A   Overcast
6:35 AM 20.3 °F 8.3 °F 13.1 °F 74% 30.31 in 10.0 mi ENE 11.5 mph - N/A   Overcast
6:55 AM 20.3 °F 8.3 °F 14.4 °F 78% 30.33 in 10.0 mi ENE 11.5 mph - N/A   Overcast
7:15 AM 20.5 °F 7.4 °F 15.1 °F 80% 30.34 in 4.0 mi NE 13.8 mph - N/A Snow Light Snow
7:23 AM 19.4 °F 6.6 °F 15.8 °F 86% 30.35 in 4.0 mi ENE 12.7 mph - N/A Snow Light Snow
7:35 AM 20.3 °F 8.3 °F 16.0 °F 83% 30.35 in 2.5 mi ENE 11.5 mph - N/A Snow Light Snow
7:55 AM 20.3 °F 7.7 °F 16.7 °F 86% 30.36 in 1.2 mi ENE 12.7 mph 17.3 mph N/A Snow Light Snow
8:15 AM 20.7 °F 11.0 °F 17.6 °F 88% 30.37 in 1.0 mi ENE 8.1 mph - N/A Snow Light Snow
8:35 AM 21.2 °F 9.5 °F 18.3 °F 89% 30.37 in 1.0 mi ENE 11.5 mph - N/A Snow Light Snow
8:55 AM 21.7 °F 10.2 °F 18.3 °F 87% 30.38 in 1.8 mi ENE 11.5 mph - N/A Snow Light Snow
9:10 AM 21.7 °F 9.6 °F 18.1 °F 86% 30.37 in 3.0 mi ENE 12.7 mph - N/A   Overcast
9:35 AM 22.3 °F 9.2 °F 18.0 °F 83% 30.37 in 10.0 mi ENE 15.0 mph - N/A   Overcast
9:55 AM 23.0 °F 11.7 °F 18.3 °F 82% 30.38 in 10.0 mi ENE 11.5 mph - N/A   Overcast
10:15 AM 22.8 °F 8.9 °F 17.2 °F 79% 30.38 in 7.0 mi ENE 17.3 mph - N/A   Overcast
10:35 AM 22.6 °F 9.2 °F 16.9 °F 79% 30.38 in 5.0 mi ENE 16.1 mph - N/A   Overcast
10:55 AM 22.3 °F 9.2 °F 16.9 °F 80% 30.38 in 10.0 mi ENE 15.0 mph - N/A   Overcast
11:15 AM 21.9 °F 8.2 °F 16.5 °F 80% 30.38 in 5.0 mi NE 16.1 mph - N/A   Overcast
11:35 AM 22.1 °F 9.5 °F 17.2 °F 82% 30.38 in 3.0 mi NE 13.8 mph - N/A   Overcast
11:55 AM 22.1 °F 8.9 °F 17.1 °F 81% 30.38 in 5.0 mi NE 15.0 mph - N/A   Overcast
12:15 PM 21.9 °F 9.8 °F 17.2 °F 82% 30.38 in 3.0 mi NE 12.7 mph - N/A Snow Light Snow
12:35 PM 22.1 °F 11.3 °F 17.4 °F 82% 30.37 in 1.2 mi NE 10.4 mph - N/A Snow Light Snow
12:55 PM 22.1 °F 10.6 °F 17.6 °F 83% 30.37 in 2.5 mi NE 11.5 mph - N/A Snow Light Snow
1:15 PM 22.1 °F 10.6 °F 17.8 °F 83% 30.37 in 1.2 mi ENE 11.5 mph - N/A Snow Light Snow
1:35 PM 22.1 °F 11.3 °F 18.1 °F 85% 30.37 in 1.8 mi NE 10.4 mph - N/A Snow Light Snow
1:50 PM 22.1 °F 10.0 °F 17.6 °F 83% 30.37 in 1.8 mi ENE 12.7 mph - N/A Snow Light Snow
2:15 PM 22.6 °F 10.7 °F 18.0 °F 82% 30.37 in 2.0 mi NE 12.7 mph - N/A Snow Light Snow
2:35 PM 22.8 °F 10.9 °F 18.0 °F 82% 30.37 in 3.0 mi NE 12.7 mph - N/A Snow Light Snow
2:55 PM 22.6 °F 9.6 °F 18.1 °F 83% 30.38 in 2.0 mi NE 15.0 mph - N/A Snow Light Snow
3:15 PM 22.6 °F 11.3 °F 18.5 °F 84% 30.38 in 2.5 mi NE 11.5 mph - N/A Snow Light Snow
3:35 PM 22.5 °F 10.5 °F 18.3 °F 84% 30.38 in 2.0 mi NE 12.7 mph - N/A Snow Light Snow
3:55 PM 22.5 °F 9.9 °F 18.3 °F 84% 30.39 in 3.0 mi NE 13.8 mph - N/A Snow Light Snow
4:15 PM 22.8 °F 10.4 °F 18.5 °F 83% 30.39 in 4.0 mi ENE 13.8 mph - N/A Snow Light Snow
4:35 PM 23.0 °F 10.6 °F 18.1 °F 82% 30.39 in 7.0 mi ENE 13.8 mph 21.9 mph N/A   Overcast
4:55 PM 23.0 °F 9.2 °F 17.6 °F 80% 30.38 in 10.0 mi ENE 17.3 mph - N/A   Overcast
5:15 PM 22.8 °F 10.4 °F 17.2 °F 79% 30.39 in 10.0 mi ENE 13.8 mph - N/A   Mostly Cloudy
5:35 PM 22.6 °F 9.6 °F 16.7 °F 78% 30.39 in 10.0 mi ENE 15.0 mph - N/A   Mostly Cloudy
5:55 PM 23.0 °F 10.6 °F 17.2 °F 79% 30.39 in 10.0 mi ENE 13.8 mph - N/A   Overcast
6:15 PM 23.0 °F 10.1 °F 17.2 °F 79% 30.39 in 10.0 mi ENE 15.0 mph 18.4 mph N/A   Overcast
6:35 PM 23.0 °F 11.7 °F 17.6 °F 80% 30.39 in 10.0 mi ENE 11.5 mph - N/A   Overcast
6:55 PM 23.0 °F 13.9 °F 17.4 °F 79% 30.40 in 10.0 mi NE 8.1 mph - N/A   Overcast
7:15 PM 22.1 °F 13.7 °F 17.6 °F 83% 30.40 in 10.0 mi NNE 6.9 mph - N/A   Overcast
7:35 PM 21.7 °F 14.3 °F 17.4 °F 83% 30.41 in 10.0 mi NE 5.8 mph - N/A   Overcast
7:55 PM 21.4 °F 13.8 °F 17.4 °F 85% 30.41 in 10.0 mi NE 5.8 mph - N/A   Overcast
8:15 PM 21.0 °F 13.4 °F 17.1 °F 85% 30.41 in 10.0 mi NE 5.8 mph - N/A   Overcast
8:35 PM 21.0 °F 14.6 °F 16.7 °F 83% 30.41 in 10.0 mi NE 4.6 mph - N/A   Overcast
8:55 PM 20.7 °F 14.2 °F 16.7 °F 85% 30.42 in 10.0 mi NE 4.6 mph - N/A   Overcast
9:15 PM 20.7 °F 15.8 °F 16.3 °F 83% 30.41 in 10.0 mi NNE 3.5 mph - N/A   Overcast
9:35 PM 20.7 °F 13.0 °F 16.2 °F 83% 30.41 in 10.0 mi NE 5.8 mph - N/A   Overcast
9:55 PM 20.3 °F 11.5 °F 16.2 °F 84% 30.41 in 10.0 mi NE 6.9 mph - N/A   Overcast
10:15 PM 19.9 °F 13.4 °F 15.6 °F 83% 30.41 in 10.0 mi NE 4.6 mph - N/A   Mostly Cloudy
10:35 PM 19.2 °F 9.3 °F 14.9 °F 83% 30.40 in 10.0 mi ENE 8.1 mph - N/A   Scattered Clouds
10:55 PM 20.7 °F 11.0 °F 14.0 °F 75% 30.40 in 10.0 mi East 8.1 mph - N/A   Scattered Clouds
11:15 PM 20.8 °F 8.4 °F 13.6 °F 74% 30.40 in 10.0 mi East 12.7 mph 16.1 mph N/A   Scattered Clouds
11:35 PM 20.8 °F 7.9 °F 13.1 °F 72% 30.40 in 10.0 mi East 13.8 mph - N/A   Clear
11:55 PM 20.3 °F 7.7 °F 12.7 °F 73% 30.40 in 10.0 mi East 12.7 mph - N/A   Clear